createdAt,value
2019-05-29T00:01:16.665Z,67.88
2019-05-29T00:03:46.001Z,66.88
2019-05-29T00:06:18.572Z,68.06
2019-05-29T00:08:52.010Z,67.13
2019-05-29T00:11:24.481Z,66.97
2019-05-29T00:13:58.293Z,67.44
2019-05-29T00:16:30.527Z,67.66
2019-05-29T00:19:02.735Z,67.71
2019-05-29T00:21:34.958Z,67.74
2019-05-29T00:24:08.259Z,68.11
2019-05-29T00:26:40.678Z,67.87
2019-05-29T00:29:14.103Z,67.64
2019-05-29T00:31:46.378Z,68.16
2019-05-29T00:34:20.849Z,67.80
2019-05-29T00:36:53.106Z,68.30
2019-05-29T00:39:25.380Z,67.49
2019-05-29T00:41:57.618Z,67.93
2019-05-29T00:44:34.630Z,68.31
2019-05-29T00:47:07.141Z,67.46
2019-05-29T00:49:39.589Z,67.25
2019-05-29T00:52:14.192Z,67.56
2019-05-29T00:54:46.509Z,68.40
2019-05-29T00:57:19.017Z,68.89
2019-05-29T00:59:53.366Z,69.12
2019-05-29T01:02:25.621Z,68.72
2019-05-29T01:04:57.821Z,68.28
2019-05-29T01:07:30.046Z,68.49
2019-05-29T01:10:03.428Z,68.28
2019-05-29T01:12:35.665Z,68.56
2019-05-29T01:15:07.876Z,69.06
2019-05-29T01:17:40.128Z,69.44
2019-05-29T01:20:12.346Z,69.13
2019-05-29T01:22:44.542Z,69.21
2019-05-29T01:25:16.761Z,69.53
2019-05-29T01:27:49.018Z,69.50
2019-05-29T01:30:21.337Z,69.73
2019-05-29T01:32:53.708Z,69.82
2019-05-29T01:35:26.042Z,70.33
2019-05-29T01:37:58.250Z,70.35
2019-05-29T01:40:30.499Z,70.16
2019-05-29T01:43:02.690Z,70.29
2019-05-29T01:45:34.900Z,70.34
2019-05-29T01:48:07.160Z,71.08
2019-05-29T01:50:39.364Z,71.19
2019-05-29T01:53:11.569Z,70.92
2019-05-29T01:55:43.769Z,71.53
2019-05-29T01:58:16.003Z,71.45
2019-05-29T02:00:48.263Z,71.77
2019-05-29T02:03:21.851Z,71.52
2019-05-29T02:05:54.235Z,71.67
2019-05-29T02:08:26.469Z,72.15
2019-05-29T02:11:00.960Z,72.01
2019-05-29T02:13:33.215Z,72.47
2019-05-29T02:16:05.429Z,72.39
2019-05-29T02:18:37.742Z,72.70
2019-05-29T02:21:10.092Z,72.83
2019-05-29T02:23:42.326Z,72.58
2019-05-29T02:26:14.539Z,72.94
2019-05-29T02:28:46.823Z,72.81
2019-05-29T02:31:21.856Z,72.68
2019-05-29T02:33:54.174Z,73.06
2019-05-29T02:36:28.785Z,73.13
2019-05-29T02:39:00.975Z,73.25
2019-05-29T02:41:34.894Z,73.45
2019-05-29T02:44:07.207Z,74.03
2019-05-29T02:46:39.431Z,73.98
2019-05-29T02:49:11.637Z,74.08
2019-05-29T02:51:43.867Z,74.13
2019-05-29T02:54:16.124Z,74.22
2019-05-29T02:56:48.390Z,74.17
2019-05-29T02:59:23.485Z,74.58
2019-05-29T03:01:56.227Z,74.48
2019-05-29T03:04:30.063Z,74.65
2019-05-29T03:07:02.386Z,74.93
2019-05-29T03:09:34.616Z,75.26
2019-05-29T03:12:06.800Z,75.47
2019-05-29T03:14:39.093Z,75.63
2019-05-29T03:17:11.310Z,76.02
2019-05-29T03:19:43.548Z,75.76
2019-05-29T03:22:15.754Z,75.70
2019-05-29T03:24:47.985Z,75.91
2019-05-29T03:27:20.235Z,75.79
2019-05-29T03:29:52.432Z,75.69
2019-05-29T03:32:27.235Z,75.63
2019-05-29T03:34:58.571Z,75.52
2019-05-29T03:37:34.314Z,75.44
2019-05-29T03:40:06.716Z,75.25
2019-05-29T03:42:39.311Z,75.48
2019-05-29T03:45:11.651Z,75.45
2019-05-29T03:47:43.845Z,75.14
2019-05-29T03:50:16.289Z,74.86
2019-05-29T03:52:48.610Z,75.13
2019-05-29T03:55:20.843Z,75.90
2019-05-29T03:57:53.033Z,75.86
2019-05-29T04:00:29.969Z,75.11
2019-05-29T04:02:59.197Z,75.01
2019-05-29T04:05:35.250Z,75.26
2019-05-29T04:08:07.370Z,75.40
2019-05-29T04:10:39.862Z,75.30
2019-05-29T04:13:12.185Z,74.93
2019-05-29T04:15:44.411Z,74.83
2019-05-29T04:18:19.833Z,74.66
2019-05-29T04:20:53.243Z,73.98
2019-05-29T04:23:25.443Z,73.65
2019-05-29T04:25:57.634Z,73.60
2019-05-29T04:28:30.332Z,73.63
2019-05-29T04:31:03.033Z,73.58
2019-05-29T04:33:36.667Z,72.70
2019-05-29T04:36:09.116Z,72.36
2019-05-29T04:38:41.335Z,72.00
2019-05-29T04:41:13.420Z,72.61
2019-05-29T04:43:45.664Z,72.48
2019-05-29T04:46:17.857Z,71.56
2019-05-29T04:48:52.153Z,71.48
2019-05-29T04:51:24.454Z,70.73
2019-05-29T04:53:56.659Z,71.26
2019-05-29T04:56:28.894Z,71.59
2019-05-29T04:59:01.144Z,71.05
2019-05-29T05:01:33.344Z,71.21
2019-05-29T05:04:05.656Z,70.68
2019-05-29T05:06:37.907Z,71.24
2019-05-29T05:09:10.133Z,70.93
2019-05-29T05:11:42.342Z,70.86
2019-05-29T05:14:14.556Z,70.84
2019-05-29T05:16:46.778Z,70.11
2019-05-29T05:19:19.013Z,69.74
2019-05-29T05:21:51.242Z,68.88
2019-05-29T05:24:23.539Z,68.68
2019-05-29T05:26:55.788Z,68.96
2019-05-29T05:29:28.008Z,67.17
2019-05-29T05:32:00.219Z,68.66
2019-05-29T05:34:32.641Z,67.95
2019-05-29T05:37:04.870Z,67.39
2019-05-29T05:39:37.334Z,67.10
2019-05-29T05:42:09.690Z,67.15
2019-05-29T05:44:42.363Z,65.06
2019-05-29T05:47:15.784Z,65.31
2019-05-29T05:49:47.904Z,65.58
2019-05-29T05:52:20.204Z,64.29
2019-05-29T05:54:52.475Z,65.01
2019-05-29T05:57:24.734Z,64.48
2019-05-29T05:59:56.975Z,63.87
2019-05-29T06:02:29.179Z,63.06
2019-05-29T06:05:01.398Z,64.14
2019-05-29T06:07:34.111Z,63.51
2019-05-29T06:10:07.507Z,62.68
2019-05-29T06:12:40.846Z,63.96
2019-05-29T06:15:14.251Z,63.28
2019-05-29T06:18:04.497Z,63.07
2019-05-29T06:20:20.530Z,62.86
2019-05-29T06:22:52.757Z,62.83
2019-05-29T06:25:24.969Z,62.83
2019-05-29T06:27:57.203Z,60.88
2019-05-29T06:30:29.507Z,60.26
2019-05-29T06:33:01.847Z,60.98
2019-05-29T06:35:34.547Z,60.32
2019-05-29T06:38:08.172Z,61.00
2019-05-29T06:40:40.412Z,60.27
2019-05-29T06:43:12.658Z,59.34
2019-05-29T06:45:44.931Z,58.52
2019-05-29T06:48:17.242Z,59.28
2019-05-29T06:50:49.444Z,58.95
2019-05-29T06:53:21.673Z,58.52
2019-05-29T06:55:55.722Z,59.20
2019-05-29T06:58:27.921Z,58.45
2019-05-29T07:01:00.148Z,59.13
2019-05-29T07:03:32.395Z,58.80
2019-05-29T07:06:04.887Z,58.38
2019-05-29T07:08:39.987Z,57.61
2019-05-29T07:11:11.134Z,57.90
2019-05-29T07:13:47.361Z,58.07
2019-05-29T07:16:17.421Z,57.18
2019-05-29T07:19:23.961Z,57.18
2019-05-29T07:21:23.695Z,55.63
2019-05-29T07:23:56.166Z,56.31
2019-05-29T07:26:28.420Z,56.24
2019-05-29T07:29:07.964Z,55.68
2019-05-29T07:31:34.567Z,55.05
2019-05-29T07:34:07.045Z,54.66
2019-05-29T07:36:41.820Z,55.64
2019-05-29T07:39:14.259Z,55.03
2019-05-29T07:41:47.715Z,54.82
2019-05-29T07:44:19.968Z,54.24
2019-05-29T07:46:54.326Z,55.26
2019-05-29T07:49:38.536Z,55.79
2019-05-29T07:52:00.557Z,55.24
2019-05-29T07:54:32.768Z,54.98
2019-05-29T07:57:05.059Z,54.52
2019-05-29T07:59:38.468Z,53.50
2019-05-29T08:02:10.866Z,54.25
2019-05-29T08:04:45.101Z,54.57
2019-05-29T08:07:17.515Z,52.44
2019-05-29T08:09:49.905Z,52.14
2019-05-29T08:12:22.224Z,51.58
2019-05-29T08:14:54.548Z,52.14
2019-05-29T08:17:27.176Z,51.64
2019-05-29T08:20:07.120Z,51.91
2019-05-29T08:22:34.887Z,51.64
2019-05-29T08:25:07.524Z,50.85
2019-05-29T08:27:40.970Z,51.67
2019-05-29T08:30:14.535Z,52.38
2019-05-29T08:32:47.049Z,51.89
2019-05-29T08:35:19.301Z,51.55
2019-05-29T08:37:51.549Z,51.86
2019-05-29T08:40:23.791Z,52.32
2019-05-29T08:42:55.996Z,50.96
2019-05-29T08:45:28.337Z,49.37
2019-05-29T08:48:00.622Z,49.33
2019-05-29T08:50:32.828Z,50.66
2019-05-29T08:53:05.093Z,50.06
2019-05-29T08:55:37.342Z,50.32
2019-05-29T08:58:09.587Z,50.37
2019-05-29T09:00:46.564Z,50.14
2019-05-29T09:03:15.755Z,50.25
2019-05-29T09:06:01.511Z,49.64
2019-05-29T09:08:21.956Z,48.82
2019-05-29T09:10:54.592Z,48.46
2019-05-29T09:13:26.804Z,47.93
2019-05-29T09:15:59.013Z,48.79
2019-05-29T09:18:31.262Z,47.54
2019-05-29T09:21:04.291Z,48.37
2019-05-29T09:23:36.918Z,47.32
2019-05-29T09:26:16.008Z,46.92
2019-05-29T09:28:43.090Z,46.50
2019-05-29T09:31:16.839Z,47.05
2019-05-29T09:33:49.291Z,47.64
2019-05-29T09:36:22.741Z,47.67
2019-05-29T09:38:55.268Z,47.16
2019-05-29T09:41:27.495Z,47.24
2019-05-29T09:44:00.388Z,46.77
2019-05-29T09:46:33.061Z,45.39
2019-05-29T09:49:05.251Z,45.02
2019-05-29T09:51:37.496Z,45.73
2019-05-29T09:54:09.773Z,46.11
2019-05-29T09:56:42.041Z,44.90
2019-05-29T09:59:14.257Z,44.42
2019-05-29T10:01:46.478Z,45.10
2019-05-29T10:04:18.680Z,44.81
2019-05-29T10:06:50.928Z,45.50
2019-05-29T10:09:23.155Z,44.52
2019-05-29T10:11:59.464Z,43.29
2019-05-29T10:14:29.491Z,43.46
2019-05-29T10:17:10.979Z,42.95
2019-05-29T10:19:37.811Z,43.01
2019-05-29T10:22:10.116Z,42.31
2019-05-29T10:24:42.337Z,43.45
2019-05-29T10:27:14.562Z,42.66
2019-05-29T10:29:50.268Z,42.03
2019-05-29T10:32:20.818Z,43.00
2019-05-29T10:34:53.111Z,41.96
2019-05-29T10:37:25.335Z,41.74
2019-05-29T10:39:57.637Z,41.14
2019-05-29T10:42:29.846Z,40.30
2019-05-29T10:45:02.129Z,39.82
2019-05-29T10:47:34.558Z,39.12
2019-05-29T10:50:06.976Z,40.20
2019-05-29T10:52:39.359Z,40.17
2019-05-29T10:55:11.570Z,39.68
2019-05-29T10:57:44.769Z,38.89
2019-05-29T11:00:17.279Z,38.88
2019-05-29T11:02:50.118Z,39.38
2019-05-29T11:05:23.545Z,39.83
2019-05-29T11:07:56.022Z,38.77
2019-05-29T11:10:28.348Z,38.89
2019-05-29T11:13:00.573Z,38.73
2019-05-29T11:15:32.828Z,38.05
2019-05-29T11:18:05.059Z,39.03
2019-05-29T11:20:39.303Z,38.15
2019-05-29T11:23:11.566Z,37.68
2019-05-29T11:25:43.926Z,37.15
2019-05-29T11:28:16.177Z,37.63
2019-05-29T11:30:48.673Z,38.50
2019-05-29T11:33:21.262Z,37.67
2019-05-29T11:36:00.805Z,38.59
2019-05-29T11:38:27.535Z,38.10
2019-05-29T11:41:24.681Z,38.44
2019-05-29T11:43:33.940Z,36.35
2019-05-29T11:46:06.170Z,36.72
2019-05-29T11:48:38.437Z,37.35
2019-05-29T11:51:10.684Z,36.15
2019-05-29T11:53:42.896Z,36.17
2019-05-29T11:56:16.265Z,31.84
2019-05-29T11:58:48.404Z,29.94
2019-05-29T12:01:20.613Z,27.32
2019-05-29T12:04:14.114Z,26.11
2019-05-29T12:06:27.371Z,22.83
2019-05-29T12:09:00.209Z,22.22
2019-05-29T12:11:33.260Z,20.88
2019-05-29T12:14:06.017Z,21.44
2019-05-29T12:16:38.888Z,19.07
2019-05-29T12:19:11.819Z,19.07
2019-05-29T12:21:44.832Z,18.07
2019-05-29T12:24:17.744Z,17.37
2019-05-29T12:26:50.545Z,16.94
2019-05-29T12:29:23.372Z,17.44
2019-05-29T12:31:57.066Z,15.88
2019-05-29T12:34:30.005Z,15.57
2019-05-29T12:37:03.860Z,16.25
2019-05-29T12:39:38.515Z,18.37
2019-05-29T12:42:11.293Z,17.46
2019-05-29T12:44:47.378Z,17.17
2019-05-29T12:47:20.169Z,16.18
2019-05-29T12:49:53.680Z,16.55
2019-05-29T12:52:26.694Z,15.95
2019-05-29T12:55:00.053Z,16.37
2019-05-29T12:57:32.910Z,16.22
2019-05-29T13:00:05.830Z,17.44
2019-05-29T13:02:38.697Z,17.58
2019-05-29T13:05:19.204Z,18.07
2019-05-29T13:07:46.034Z,19.72
2019-05-29T13:10:29.842Z,19.42
2019-05-29T13:12:58.993Z,18.79
2019-05-29T13:15:28.119Z,18.56
2019-05-29T13:18:06.344Z,17.14
2019-05-29T13:20:35.822Z,16.86
2019-05-29T13:23:08.671Z,18.25
2019-05-29T13:25:41.654Z,20.33
2019-05-29T13:28:14.483Z,20.03
2019-05-29T13:30:47.291Z,19.81
2019-05-29T13:33:20.126Z,21.09
2019-05-29T13:35:52.920Z,19.15
2019-05-29T13:38:25.743Z,16.82
2019-05-29T13:40:58.533Z,16.27
2019-05-29T13:43:31.603Z,16.55
2019-05-29T13:46:04.703Z,15.45
2019-05-29T13:48:37.802Z,15.55
2019-05-29T13:51:10.599Z,14.42
2019-05-29T13:53:43.484Z,13.97
2019-05-29T13:56:16.322Z,14.13
2019-05-29T13:58:49.129Z,13.14
2019-05-29T14:01:21.962Z,13.42
2019-05-29T14:03:54.812Z,13.42
2019-05-29T14:06:27.613Z,16.33
2019-05-29T14:09:02.931Z,18.50
2019-05-29T14:11:36.554Z,20.63
2019-05-29T14:14:11.231Z,22.33
2019-05-29T14:16:42.717Z,23.78
2019-05-29T14:19:15.060Z,24.66
2019-05-29T14:21:47.467Z,26.88
2019-05-29T14:24:28.656Z,26.09
2019-05-29T14:26:53.595Z,27.93
2019-05-29T14:29:25.858Z,27.93
2019-05-29T14:31:59.181Z,27.83
2019-05-29T14:34:31.467Z,29.38
2019-05-29T14:37:04.933Z,30.29
2019-05-29T14:39:37.688Z,28.95
2019-05-29T14:42:10.295Z,28.87
2019-05-29T14:44:42.546Z,29.13
2019-05-29T14:47:14.868Z,29.07
2019-05-29T14:49:47.092Z,28.63
2019-05-29T14:52:19.312Z,28.34
2019-05-29T14:54:51.609Z,28.78
2019-05-29T14:57:26.259Z,28.99
2019-05-29T14:59:58.322Z,29.54
2019-05-29T15:02:30.583Z,30.10
2019-05-29T15:05:03.742Z,29.43
2019-05-29T15:07:36.393Z,29.70
2019-05-29T15:10:21.991Z,30.04
2019-05-29T15:12:42.866Z,30.59
2019-05-29T15:15:16.485Z,29.53
2019-05-29T15:17:49.040Z,30.82
2019-05-29T15:20:21.257Z,31.26
2019-05-29T15:22:53.797Z,30.44
2019-05-29T15:25:26.067Z,30.84
2019-05-29T15:27:58.473Z,30.34
2019-05-29T15:30:30.680Z,30.97
2019-05-29T15:33:03.080Z,31.44
2019-05-29T15:35:35.328Z,31.57
2019-05-29T15:38:08.666Z,31.46
2019-05-29T15:40:41.103Z,31.40
2019-05-29T15:43:13.392Z,31.51
2019-05-29T15:45:45.674Z,31.18
2019-05-29T15:48:17.895Z,31.51
2019-05-29T15:50:52.006Z,32.08
2019-05-29T15:53:24.293Z,31.38
2019-05-29T15:55:56.572Z,31.43
2019-05-29T15:58:28.862Z,31.43
2019-05-29T16:01:01.127Z,31.98
2019-05-29T16:03:33.719Z,32.18
2019-05-29T16:06:05.962Z,31.98
2019-05-29T16:08:38.209Z,30.77
2019-05-29T16:11:10.644Z,30.46
2019-05-29T16:13:42.866Z,31.18
2019-05-29T16:16:15.336Z,31.06
2019-05-29T16:18:47.896Z,32.10
2019-05-29T16:21:21.153Z,31.40
2019-05-29T16:23:53.492Z,32.09
2019-05-29T16:26:25.906Z,31.88
2019-05-29T16:28:58.350Z,30.30
2019-05-29T16:31:30.598Z,30.71
2019-05-29T16:34:02.976Z,30.48
2019-05-29T16:36:35.214Z,30.88
2019-05-29T16:39:07.392Z,30.66
2019-05-29T16:41:39.862Z,30.94
2019-05-29T16:44:12.177Z,30.61
2019-05-29T16:46:45.502Z,31.51
2019-05-29T16:49:18.709Z,31.42
2019-05-29T16:51:51.189Z,30.00
2019-05-29T16:54:23.402Z,29.91
2019-05-29T16:56:55.788Z,27.28
2019-05-29T16:59:29.920Z,24.34
2019-05-29T17:02:02.881Z,23.14
2019-05-29T17:04:35.698Z,22.74
2019-05-29T17:07:08.571Z,21.79
2019-05-29T17:09:41.377Z,21.67
2019-05-29T17:12:14.321Z,23.25
2019-05-29T17:14:46.837Z,24.68
2019-05-29T17:17:19.118Z,26.51
2019-05-29T17:19:51.397Z,27.86
2019-05-29T17:22:24.907Z,26.40
2019-05-29T17:24:57.816Z,23.95
2019-05-29T17:27:30.736Z,23.14
2019-05-29T17:30:03.562Z,22.46
2019-05-29T17:32:36.688Z,23.47
2019-05-29T17:35:09.891Z,22.60
2019-05-29T17:37:43.046Z,24.39
2019-05-29T17:40:16.989Z,24.16
2019-05-29T17:42:50.228Z,24.38
2019-05-29T17:45:25.617Z,25.46
2019-05-29T17:47:57.376Z,26.93
2019-05-29T17:50:30.477Z,28.75
2019-05-29T17:53:02.888Z,29.89
2019-05-29T17:55:35.111Z,31.15
2019-05-29T17:58:07.404Z,32.50
2019-05-29T18:00:39.938Z,33.17
2019-05-29T18:03:12.299Z,34.19
2019-05-29T18:05:44.875Z,34.60
2019-05-29T18:08:18.578Z,35.03
2019-05-29T18:10:52.205Z,35.74
2019-05-29T18:13:25.327Z,36.40
2019-05-29T18:15:57.684Z,36.27
2019-05-29T18:18:29.894Z,36.92
2019-05-29T18:21:02.239Z,36.97
2019-05-29T18:23:34.547Z,37.02
2019-05-29T18:26:06.823Z,37.41
2019-05-29T18:28:39.033Z,37.32
2019-05-29T18:31:11.471Z,37.71
2019-05-29T18:33:43.764Z,38.28
2019-05-29T18:36:16.026Z,37.97
2019-05-29T18:38:48.287Z,38.32
2019-05-29T18:41:20.504Z,38.44
2019-05-29T18:43:52.732Z,38.71
2019-05-29T18:46:25.229Z,39.65
2019-05-29T18:48:57.456Z,39.66
2019-05-29T18:51:29.688Z,40.49
2019-05-29T18:54:01.965Z,40.71
2019-05-29T18:56:34.263Z,41.07
2019-05-29T18:59:06.977Z,40.60
2019-05-29T19:01:39.318Z,41.17
2019-05-29T19:04:11.711Z,41.12
2019-05-29T19:06:44.103Z,40.96
2019-05-29T19:09:16.329Z,41.34
2019-05-29T19:11:48.596Z,42.31
2019-05-29T19:14:21.752Z,43.38
2019-05-29T19:16:55.228Z,43.80
2019-05-29T19:19:28.363Z,44.59
2019-05-29T19:22:00.819Z,44.82
2019-05-29T19:24:33.204Z,45.17
2019-05-29T19:27:05.406Z,45.96
2019-05-29T19:29:37.657Z,46.58
2019-05-29T19:32:10.779Z,46.92
2019-05-29T19:34:43.055Z,46.83
2019-05-29T19:37:15.411Z,46.80
2019-05-29T19:39:47.584Z,47.36
2019-05-29T19:42:19.855Z,47.50
2019-05-29T19:44:52.127Z,47.94
2019-05-29T19:47:26.540Z,48.04
2019-05-29T19:49:58.890Z,48.46
2019-05-29T19:52:31.265Z,48.34
2019-05-29T19:55:03.664Z,48.80
2019-05-29T19:57:54.161Z,49.14
2019-05-29T20:00:09.963Z,49.44
2019-05-29T20:02:42.499Z,49.82
2019-05-29T20:05:14.725Z,50.09
2019-05-29T20:07:46.971Z,50.59
2019-05-29T20:10:20.272Z,50.72
2019-05-29T20:12:52.511Z,51.15
2019-05-29T20:15:24.759Z,51.43
2019-05-29T20:17:57.088Z,51.90
2019-05-29T20:20:30.359Z,51.93
2019-05-29T20:23:02.754Z,51.89
2019-05-29T20:25:35.047Z,52.17
2019-05-29T20:28:07.286Z,52.05
2019-05-29T20:30:39.624Z,51.81
2019-05-29T20:33:12.069Z,52.12
2019-05-29T20:35:44.329Z,51.91
2019-05-29T20:38:16.553Z,52.63
2019-05-29T20:40:48.930Z,52.09
2019-05-29T20:43:21.252Z,51.75
2019-05-29T20:45:54.498Z,52.03
2019-05-29T20:48:26.947Z,51.99
2019-05-29T20:50:59.200Z,52.22
2019-05-29T20:53:33.402Z,52.12
2019-05-29T20:56:05.800Z,52.32
2019-05-29T20:58:38.040Z,52.28
2019-05-29T21:01:10.264Z,51.61
2019-05-29T21:03:42.661Z,51.83
2019-05-29T21:06:15.144Z,52.43
2019-05-29T21:08:47.367Z,51.94
2019-05-29T21:11:19.595Z,51.92
2019-05-29T21:13:52.242Z,52.00
2019-05-29T21:16:24.473Z,52.95
2019-05-29T21:18:56.704Z,52.63
2019-05-29T21:21:28.956Z,52.25
2019-05-29T21:24:01.234Z,52.30
2019-05-29T21:26:34.944Z,52.22
2019-05-29T21:29:07.987Z,52.80
2019-05-29T21:31:41.631Z,52.48
2019-05-29T21:34:14.144Z,52.77
2019-05-29T21:36:46.810Z,53.21
2019-05-29T21:39:19.041Z,53.67
2019-05-29T21:41:52.383Z,53.54
2019-05-29T21:44:24.802Z,53.53
2019-05-29T21:46:57.020Z,54.02
2019-05-29T21:49:31.550Z,54.24
2019-05-29T21:52:03.312Z,53.74
2019-05-29T21:54:35.610Z,53.75
2019-05-29T21:57:07.796Z,53.90
2019-05-29T21:59:48.120Z,53.77
2019-05-29T22:02:21.363Z,53.90
2019-05-29T22:04:53.866Z,53.92
2019-05-29T22:07:26.105Z,54.25
2019-05-29T22:09:58.721Z,54.67
2019-05-29T22:12:31.073Z,54.19
2019-05-29T22:15:04.074Z,54.43
2019-05-29T22:17:38.856Z,53.74
2019-05-29T22:20:11.073Z,53.94
2019-05-29T22:22:43.315Z,54.15
2019-05-29T22:25:15.559Z,54.41
2019-05-29T22:27:47.784Z,54.73
2019-05-29T22:30:20.025Z,54.50
2019-05-29T22:32:53.283Z,54.39
2019-05-29T22:35:25.603Z,54.04
2019-05-29T22:37:57.854Z,54.13
2019-05-29T22:40:30.077Z,54.38
2019-05-29T22:43:02.418Z,54.41
2019-05-29T22:45:34.866Z,54.54
2019-05-29T22:48:07.142Z,54.98
2019-05-29T22:50:39.392Z,55.05
2019-05-29T22:53:11.712Z,55.11
2019-05-29T22:55:43.947Z,55.00
2019-05-29T22:58:16.170Z,55.17
2019-05-29T23:00:48.398Z,55.36
2019-05-29T23:03:21.056Z,55.65
2019-05-29T23:05:54.273Z,55.54
2019-05-29T23:08:26.536Z,55.46
2019-05-29T23:10:58.768Z,55.54
2019-05-29T23:13:30.997Z,55.43
2019-05-29T23:16:03.950Z,55.55
2019-05-29T23:18:37.261Z,55.72
2019-05-29T23:21:09.501Z,55.75
2019-05-29T23:23:41.717Z,56.12
2019-05-29T23:26:13.973Z,56.31
2019-05-29T23:28:46.418Z,56.38
2019-05-29T23:31:18.965Z,56.48
2019-05-29T23:33:51.195Z,56.80
2019-05-29T23:36:23.406Z,57.09
2019-05-29T23:38:55.660Z,57.79
2019-05-29T23:41:27.868Z,58.13
2019-05-29T23:44:00.115Z,57.82
2019-05-29T23:46:32.366Z,58.12
2019-05-29T23:49:04.591Z,58.15
2019-05-29T23:51:36.851Z,58.13
2019-05-29T23:54:09.104Z,58.83
2019-05-29T23:56:41.332Z,58.78
2019-05-29T23:59:13.542Z,58.63
